Drake, KY (42128)

12:03 PM CDT on August 30, 2015 (GMT -0500)
Plano | | Change Station
CLOSE
Current Station
Personal Weather Station
Location: Bowling Green, KY
Elevation: 630 ft
Nearby Weather Stations

Elev 630 ft 36.87 °N, 86.41 °W | Updated 3 seconds ago

Partly Cloudy
Partly Cloudy
81.7 °F
Feels Like 87 °F
N
3.0
Wind Variable Wind from WSW
Gusts 7.0 mph

Today
High -- | Low -- °F
--% Chance of Precip.
Yesterday
High -- | Low -- °F
Precip. -- in
6:14 AM 7:17 PM
Full, 99% visible
Pressure 30.12 in
Visibility 10.0 miles
Clouds Scattered Clouds 3500 ft
Heat Index 87 °F
Dew Point 73 °F
Humidity 76%
Rainfall 0.00 in
Snow Depth Not available.
UV 8 out of 12
Pollen 7.80 out of 12
Air Quality Not available.
Flu Activity Not available.
METAR KBWG 301653Z AUTO 24009KT 10SM SCT035 28/18 A3013 RMK AO2 SLP199 T02830183
Pressure 30.12 in
Visibility 10.0 miles
Clouds Scattered Clouds 3500 ft
Heat Index 87 °F
Dew Point 73 °F
Humidity 76%
Rainfall 0.00 in
Snow Depth Not available.
UV 8 out of 12
Pollen 7.80 out of 12
Air Quality Not available.
Flu Activity Not available.
METAR KBWG 301653Z AUTO 24009KT 10SM SCT035 28/18 A3013 RMK AO2 SLP199 T02830183

10-Day Weather Forecast

×

Almanac

Astronomy

Aug. 30, 2015 Rise Set
Actual Time
Civil Twilight
Nautical Twilight
Astronomical Twilight
Moon
Length of Visible Light
Length of Day
Tomorrow will be .
, % of the Moon is Illuminated

Today's Extremes

State Highs State Lows

Community

WunderPhotos

Upload Photos

1,851,008 photos uploaded!

WunderBlogs® & News

Nearby

Air Quality

  Air Quality AQ Index Pollutant
Not available.

Snow Depth

Station Depth Elevation

Earthquake Activity

City Distance Mag. Time & Date
Minimum magnitude displayed is 2.5.

Coastal Water Temperatures

Place Temperature

Stations

Nearby Weather Stations

Station Location Temp. Windchill Dew Point Humidity Wind Precip. Elev Updated Type